Airfield :







YOU CAN JOIN US ON...

 
LOGIN :

Register | Disclaimer

   EN    FR    IT 

 









Legend :    VFR   Marginal VFR   IFR   Intensive IFR   Very Intensive IFR
Visi :
Ceiling :
>= 8 km
>= 3000ft
5 to 8 km
1000 to 3000 ft
1500m to 5 km
500 to 1000 ft
800 to 1500m
200 to 500 ft
< 800m
< 200 ft
Symbols :   Thunderstorms  Fog  Heavy snow  Heavy precipitations  Wind > 20 kt






- Airport Elevation : 241 ft
- IATA code : CEF


KCEF - Westover ARB/Metropolitan

CURRENT METAR :
  • 271256Z 21004KT 10SM SCT110 BKN250 13/10 A2994 RMK AO2A SLP145 T01340104

EXPIRED METARs :
  • 271156Z 00000KT 10SM BKN095 BKN120 11/10 A2994 RMK AO2A SLP145 T01070099 10107 20069 50005
  • 271056Z 00000KT 10SM SCT080 BKN100 09/09 A2993 RMK AO2A SLP141 T00900088

TAF TAF KCEF
Valid from the 27 at 11:00 until the 28 at 17:00 UTC


271100Z 2711/2817 VRB06KT 9999 SCT070 BKN090 620903 510153 QNH2990INS
BECMG 2715/2716 22010G15KT 9999 BKN080 BKN200 510009 QNH2978INS
TEMPO 2719/2722 24015G25KT
BECMG 2721/2722 21009KT 9999 BKN070 BKN200 510153 QNH2978INS
BECMG 2814/2815 29012KT 9999 -SHRA BKN040 BKN080 QNH2980INS TX25/2720Z TN09/2711Z
KZBW FIR / North America



MET'MAP, your aeronautical weather chart ! - Copyright ORBIFLY December 2007 - Disclaimer

ORBIFLY MET'MAP TEAM :

Programming & Development : Alexandra Zaïnal
Concept & original design : Baudouin d'Aumeries
Assistance for programming : Marc-Olivier Méhu
Technical & hardware support : Manuel Goepfert

Contact : metmap@orbifly.com




SOURCES & CREDITS :

   NOAA